Terminal Aerodrome Forecast
Issued by NWS

Home | Current Version | Previous Version | Text Only | Print | Product List | Glossary On
Versions: 1 2 3 4 5 6 7 8 9 10 11 12 13 14 15 16 17 18 19 20
599
FTUS42 KMHX 211720
TAFPGV
TAF
KPGV 211720Z 2118/2218 22010KT P6SM SCT025
     FM220600 20006KT 5SM BR SCT005
     FM220800 20006KT 3SM BR BKN005
     FM220930 20006KT 1SM BR BKN005
     FM221400 20005KT P6SM BKN015
     FM221500 21007KT P6SM SCT030
      AMD LTD TO CLD VIS AND WIND=

USA.gov is the U.S. government's official web portal to all federal, state and local government web resources and services.